createdAt,value
2019-04-30T00:00:39.502Z,10.26
2019-04-30T00:03:18.030Z,10.31
2019-04-30T00:05:49.294Z,10.31
2019-04-30T00:08:16.253Z,10.27
2019-04-30T00:10:45.409Z,10.16
2019-04-30T00:13:20.486Z,10.16
2019-04-30T00:15:47.805Z,10.03
2019-04-30T00:18:15.908Z,9.89
2019-04-30T00:20:46.988Z,9.85
2019-04-30T00:23:17.820Z,9.78
2019-04-30T00:25:46.488Z,9.75
2019-04-30T00:28:15.669Z,9.84
2019-04-30T00:30:47.693Z,9.88
2019-04-30T00:33:22.178Z,9.78
2019-04-30T00:35:49.740Z,9.88
2019-04-30T00:38:16.799Z,9.93
2019-04-30T00:40:45.800Z,9.79
2019-04-30T00:43:15.576Z,9.78
2019-04-30T00:45:47.403Z,9.73
2019-04-30T00:48:19.307Z,9.66
2019-04-30T00:50:46.071Z,9.75
2019-04-30T00:53:16.634Z,9.75
2019-04-30T00:55:48.447Z,10.03
2019-04-30T00:58:17.502Z,10.02
2019-04-30T01:01:08.112Z,10.05
2019-04-30T01:03:39.472Z,10.08
2019-04-30T01:06:09.005Z,10.06
2019-04-30T01:08:37.956Z,10.10
2019-04-30T01:11:09.606Z,10.09
2019-04-30T01:13:39.247Z,10.22
2019-04-30T01:16:09.853Z,10.16
2019-04-30T01:18:39.086Z,10.15
2019-04-30T01:21:11.222Z,10.06
2019-04-30T01:23:43.160Z,10.16
2019-04-30T01:26:09.935Z,10.17
2019-04-30T01:28:38.985Z,10.17
2019-04-30T01:31:09.000Z,10.20
2019-04-30T01:33:39.006Z,10.22
2019-04-30T01:36:09.699Z,10.14
2019-04-30T01:38:40.338Z,10.11
2019-04-30T01:41:09.659Z,10.09
2019-04-30T01:43:38.689Z,10.08
2019-04-30T01:46:12.267Z,10.05
2019-04-30T01:48:39.329Z,9.99
2019-04-30T01:51:08.985Z,10.23
2019-04-30T01:53:38.667Z,10.24
2019-04-30T01:56:25.208Z,10.21
2019-04-30T01:58:59.389Z,10.27
2019-04-30T02:01:31.191Z,10.38
2019-04-30T02:03:59.674Z,10.43
2019-04-30T02:06:29.419Z,10.61
2019-04-30T02:08:59.371Z,10.62
2019-04-30T02:11:28.838Z,10.54
2019-04-30T02:13:59.127Z,10.50
2019-04-30T02:16:28.926Z,10.64
2019-04-30T02:18:59.698Z,10.56
2019-04-30T02:21:30.035Z,10.55
2019-04-30T02:23:59.330Z,10.48
2019-04-30T02:26:28.692Z,10.55
2019-04-30T02:28:59.441Z,10.50
2019-04-30T02:31:31.007Z,10.62
2019-04-30T02:34:22.258Z,10.63
2019-04-30T02:36:59.095Z,10.59
2019-04-30T02:39:30.132Z,10.59
2019-04-30T02:41:59.977Z,10.54
2019-04-30T02:44:31.125Z,10.57
2019-04-30T02:47:01.093Z,10.52
2019-04-30T02:49:31.865Z,10.53
2019-04-30T02:52:02.804Z,10.46
2019-04-30T02:54:33.366Z,10.39
2019-04-30T02:57:12.677Z,10.37
2019-04-30T03:00:00.253Z,10.32
2019-04-30T03:02:50.600Z,10.28
2019-04-30T03:05:20.455Z,10.37
2019-04-30T03:07:53.025Z,10.33
2019-04-30T03:10:20.200Z,10.29
2019-04-30T03:12:49.925Z,10.19
2019-04-30T03:15:22.710Z,10.24
2019-04-30T03:18:00.611Z,10.13
2019-04-30T03:20:44.608Z,10.14
2019-04-30T03:23:13.650Z,10.18
2019-04-30T03:25:42.461Z,10.18
2019-04-30T03:28:11.512Z,10.31
2019-04-30T03:30:41.820Z,10.37
2019-04-30T03:33:12.862Z,10.38
2019-04-30T03:35:47.421Z,10.44
2019-04-30T03:38:12.185Z,10.42
2019-04-30T03:40:41.122Z,10.43
2019-04-30T03:43:10.481Z,10.46
2019-04-30T03:45:40.246Z,10.45
2019-04-30T03:48:10.317Z,10.44
2019-04-30T03:50:50.333Z,10.47
2019-04-30T03:53:10.437Z,10.43
2019-04-30T03:55:40.137Z,10.41
2019-04-30T03:58:09.459Z,10.43
2019-04-30T04:00:51.672Z,10.42
2019-04-30T04:03:20.488Z,10.43
2019-04-30T04:05:54.885Z,10.55
2019-04-30T04:08:49.037Z,10.58
2019-04-30T04:11:24.649Z,10.49
2019-04-30T04:13:53.685Z,10.33
2019-04-30T04:16:22.589Z,10.17
2019-04-30T04:18:51.456Z,10.07
2019-04-30T04:21:20.816Z,9.99
2019-04-30T04:23:49.861Z,10.01
2019-04-30T04:26:20.291Z,10.01
2019-04-30T04:28:49.749Z,10.02
2019-04-30T04:31:19.362Z,10.03
2019-04-30T04:33:49.644Z,9.99
2019-04-30T04:36:20.184Z,9.92
2019-04-30T04:38:50.656Z,9.92
2019-04-30T04:41:19.952Z,9.90
2019-04-30T04:43:50.379Z,9.90
2019-04-30T04:46:20.519Z,9.97
2019-04-30T04:48:49.676Z,9.94
2019-04-30T04:51:33.286Z,9.89
2019-04-30T04:53:50.007Z,9.87
2019-04-30T04:56:19.217Z,9.88
2019-04-30T04:58:50.184Z,9.87
2019-04-30T05:01:20.399Z,9.95
2019-04-30T05:03:49.548Z,10.00
2019-04-30T05:06:22.005Z,9.92
2019-04-30T05:08:49.409Z,9.99
2019-04-30T05:11:19.240Z,10.01
2019-04-30T05:13:49.047Z,10.02
2019-04-30T05:16:19.099Z,10.00
2019-04-30T05:18:48.799Z,9.99
2019-04-30T05:21:18.811Z,9.99
2019-04-30T05:23:49.276Z,10.01
2019-04-30T05:26:19.114Z,10.06
2019-04-30T05:28:51.155Z,10.08
2019-04-30T05:31:21.062Z,10.08
2019-04-30T05:33:49.469Z,10.18
2019-04-30T05:36:19.154Z,10.11
2019-04-30T05:38:48.716Z,10.25
2019-04-30T05:41:19.308Z,10.34
2019-04-30T05:43:48.890Z,10.44
2019-04-30T05:46:19.626Z,10.43
2019-04-30T05:48:49.536Z,10.54
2019-04-30T05:51:19.381Z,10.71
2019-04-30T05:53:49.263Z,10.77
2019-04-30T05:56:19.295Z,10.84
2019-04-30T05:58:49.466Z,10.93
2019-04-30T06:01:19.612Z,10.91
2019-04-30T06:03:48.625Z,11.07
2019-04-30T06:06:19.361Z,11.20
2019-04-30T06:09:04.608Z,11.20
2019-04-30T06:11:43.524Z,11.38
2019-04-30T06:14:28.635Z,11.18
2019-04-30T06:17:06.675Z,11.18
2019-04-30T06:19:36.650Z,11.29
2019-04-30T06:22:10.104Z,11.47
2019-04-30T06:24:36.735Z,11.28
2019-04-30T06:27:05.924Z,11.37
2019-04-30T06:29:35.501Z,11.31
2019-04-30T06:32:04.986Z,11.58
2019-04-30T06:34:34.502Z,11.52
2019-04-30T06:37:03.870Z,11.79
2019-04-30T06:39:32.806Z,11.80
2019-04-30T06:42:06.926Z,12.13
2019-04-30T06:44:38.955Z,12.29
2019-04-30T06:47:04.519Z,12.00
2019-04-30T06:49:34.410Z,11.96
2019-04-30T06:52:03.294Z,12.06
2019-04-30T06:54:32.301Z,12.20
2019-04-30T06:57:01.293Z,12.31
2019-04-30T06:59:30.290Z,12.95
2019-04-30T07:01:59.386Z,13.12
2019-04-30T07:04:29.321Z,14.21
2019-04-30T07:06:59.038Z,14.88
2019-04-30T07:09:48.886Z,15.20
2019-04-30T07:12:25.512Z,15.62
2019-04-30T07:14:44.825Z,15.05
2019-04-30T07:17:13.889Z,15.02
2019-04-30T07:19:54.221Z,15.51
2019-04-30T07:22:19.048Z,15.98
2019-04-30T07:24:50.595Z,16.44
2019-04-30T07:27:24.197Z,16.97
2019-04-30T07:29:57.325Z,16.81
2019-04-30T07:32:30.587Z,16.60
2019-04-30T07:34:59.606Z,17.06
2019-04-30T07:37:29.423Z,16.01
2019-04-30T07:39:59.028Z,16.42
2019-04-30T07:42:29.453Z,16.86
2019-04-30T07:45:00.694Z,17.39
2019-04-30T07:47:29.711Z,17.28
2019-04-30T07:50:00.758Z,17.29
2019-04-30T07:52:33.125Z,17.58
2019-04-30T07:55:00.803Z,17.49
2019-04-30T07:57:32.481Z,17.03
2019-04-30T08:00:00.738Z,17.39
2019-04-30T08:02:38.039Z,17.59
2019-04-30T08:05:11.181Z,16.69
2019-04-30T08:07:40.222Z,16.36
2019-04-30T08:10:11.740Z,16.29
2019-04-30T08:12:43.042Z,15.24
2019-04-30T08:15:11.322Z,14.78
2019-04-30T08:17:40.237Z,13.99
2019-04-30T08:20:09.539Z,13.74
2019-04-30T08:22:40.885Z,13.61
2019-04-30T08:25:09.738Z,13.40
2019-04-30T08:27:39.294Z,13.54
2019-04-30T08:30:20.666Z,13.52
2019-04-30T08:32:39.410Z,13.73
2019-04-30T08:35:09.837Z,13.72
2019-04-30T08:37:40.143Z,13.58
2019-04-30T08:40:09.223Z,13.70
2019-04-30T08:42:40.287Z,13.83
2019-04-30T08:45:09.606Z,14.16
2019-04-30T08:47:39.261Z,14.15
2019-04-30T08:50:09.749Z,14.44
2019-04-30T08:52:39.411Z,14.49
2019-04-30T08:55:15.946Z,14.37
2019-04-30T08:57:39.673Z,14.57
2019-04-30T09:00:11.790Z,14.42
2019-04-30T09:02:40.296Z,14.63
2019-04-30T09:05:18.445Z,14.67
2019-04-30T09:07:48.686Z,15.10
2019-04-30T09:10:19.259Z,15.29
2019-04-30T09:12:49.601Z,15.14
2019-04-30T09:15:19.321Z,15.09
2019-04-30T09:18:00.841Z,15.22
2019-04-30T09:20:19.506Z,15.29
2019-04-30T09:22:49.626Z,15.52
2019-04-30T09:25:19.436Z,15.71
2019-04-30T09:27:48.873Z,16.01
2019-04-30T09:30:18.862Z,15.66
2019-04-30T09:32:49.919Z,15.79
2019-04-30T09:35:19.589Z,15.72
2019-04-30T09:37:49.621Z,15.42
2019-04-30T09:40:21.193Z,15.60
2019-04-30T09:42:50.135Z,15.60
2019-04-30T09:45:19.718Z,15.61
2019-04-30T09:47:50.520Z,15.88
2019-04-30T09:50:19.738Z,16.10
2019-04-30T09:52:50.084Z,16.30
2019-04-30T09:55:19.424Z,16.30
2019-04-30T09:57:48.934Z,16.32
2019-04-30T10:00:19.392Z,16.35
2019-04-30T10:02:48.918Z,16.50
2019-04-30T10:05:19.684Z,16.86
2019-04-30T10:07:49.385Z,16.82
2019-04-30T10:10:21.839Z,16.65
2019-04-30T10:12:50.774Z,16.42
2019-04-30T10:15:49.964Z,16.46
2019-04-30T10:18:18.997Z,16.72
2019-04-30T10:20:48.038Z,16.89
2019-04-30T10:23:16.994Z,16.91
2019-04-30T10:25:46.363Z,17.03
2019-04-30T10:28:15.474Z,16.88
2019-04-30T10:33:48.636Z,17.16
2019-04-30T10:36:18.943Z,16.98
2019-04-30T10:38:49.430Z,17.14
2019-04-30T10:41:18.916Z,17.65
2019-04-30T10:43:49.273Z,17.37
2019-04-30T10:46:18.400Z,17.43
2019-04-30T10:48:47.450Z,17.31
2019-04-30T10:51:16.438Z,17.52
2019-04-30T10:53:45.462Z,17.67
2019-04-30T10:56:14.406Z,17.83
2019-04-30T10:58:43.433Z,17.88
2019-04-30T11:01:12.338Z,17.69
2019-04-30T11:03:42.919Z,18.09
2019-04-30T11:06:12.115Z,18.03
2019-04-30T11:08:41.127Z,17.79
2019-04-30T11:11:10.104Z,17.66
2019-04-30T11:13:39.378Z,17.58
2019-04-30T11:16:15.131Z,17.55
2019-04-30T11:18:39.173Z,17.44
2019-04-30T11:21:09.747Z,17.72
2019-04-30T11:23:39.515Z,18.15
2019-04-30T11:26:09.474Z,18.04
2019-04-30T11:28:39.039Z,17.95
2019-04-30T11:31:26.282Z,18.01
2019-04-30T11:33:56.557Z,18.29
2019-04-30T11:36:25.479Z,18.01
2019-04-30T11:38:54.485Z,17.67
2019-04-30T11:41:31.034Z,17.81
2019-04-30T11:43:54.369Z,17.37
2019-04-30T11:47:04.649Z,17.94
2019-04-30T11:49:33.601Z,17.93
2019-04-30T11:52:02.635Z,18.24
2019-04-30T11:54:31.587Z,18.48
2019-04-30T11:57:00.519Z,18.59
2019-04-30T11:59:29.857Z,18.53
2019-04-30T12:02:00.670Z,18.68
2019-04-30T12:04:29.976Z,18.40
2019-04-30T12:07:01.739Z,18.09
2019-04-30T12:09:49.658Z,18.14
2019-04-30T12:12:19.015Z,17.98
2019-04-30T12:14:49.420Z,18.01
2019-04-30T12:17:18.461Z,18.18
2019-04-30T12:19:48.844Z,18.35
2019-04-30T12:22:20.007Z,18.31
2019-04-30T12:24:49.961Z,18.51
2019-04-30T12:27:19.459Z,18.51
2019-04-30T12:29:49.563Z,18.47
2019-04-30T12:32:19.203Z,18.48
2019-04-30T12:34:49.294Z,18.39
2019-04-30T12:37:19.088Z,19.03
2019-04-30T12:39:49.453Z,18.85
2019-04-30T12:42:18.954Z,18.85
2019-04-30T12:44:49.556Z,18.85
2019-04-30T12:47:21.736Z,19.09
2019-04-30T12:50:00.937Z,19.41
2019-04-30T12:52:51.331Z,19.52
2019-04-30T12:55:33.652Z,19.53
2019-04-30T12:58:02.985Z,19.70
2019-04-30T13:00:32.275Z,19.95
2019-04-30T13:03:01.167Z,19.86
2019-04-30T13:05:30.098Z,19.75
2019-04-30T13:08:00.446Z,20.08
2019-04-30T13:10:30.150Z,20.21
2019-04-30T13:12:59.937Z,20.31
2019-04-30T13:15:29.792Z,20.33
2019-04-30T13:17:59.022Z,20.38
2019-04-30T13:20:29.356Z,20.17
2019-04-30T13:22:58.906Z,20.17
2019-04-30T13:25:35.007Z,20.56
2019-04-30T13:28:03.517Z,21.02
2019-04-30T13:30:32.599Z,21.57
2019-04-30T13:33:13.118Z,22.37
2019-04-30T13:35:42.009Z,22.12
2019-04-30T13:38:25.280Z,22.52
2019-04-30T13:41:09.449Z,22.58
2019-04-30T13:43:59.071Z,23.55
2019-04-30T13:46:28.512Z,23.69
2019-04-30T13:48:57.993Z,23.04
2019-04-30T13:51:26.910Z,22.76
2019-04-30T13:53:55.718Z,23.27
2019-04-30T13:56:24.740Z,23.94
2019-04-30T13:58:53.769Z,24.01
2019-04-30T14:01:22.759Z,23.90
2019-04-30T14:04:08.889Z,23.80
2019-04-30T14:06:42.578Z,23.92
2019-04-30T14:09:23.462Z,23.59
2019-04-30T14:11:52.480Z,24.65
2019-04-30T14:14:21.433Z,24.62
2019-04-30T14:16:50.411Z,24.94
2019-04-30T14:19:19.646Z,25.18
2019-04-30T14:21:49.388Z,25.74
2019-04-30T14:24:19.301Z,25.22
2019-04-30T14:26:49.131Z,25.17
2019-04-30T14:29:18.291Z,24.99
2019-04-30T14:31:48.787Z,24.42
2019-04-30T14:34:18.614Z,23.83
2019-04-30T14:36:49.268Z,24.56
2019-04-30T14:39:20.330Z,24.95
2019-04-30T14:41:52.110Z,24.41
2019-04-30T14:44:23.827Z,24.86
2019-04-30T14:47:13.027Z,25.71
2019-04-30T14:50:13.651Z,24.65
2019-04-30T14:52:49.239Z,25.23
2019-04-30T14:55:55.395Z,26.01
2019-04-30T14:58:47.757Z,24.35
2019-04-30T15:01:30.576Z,23.57
2019-04-30T15:03:59.869Z,23.38
2019-04-30T15:06:28.781Z,24.35
2019-04-30T15:08:59.147Z,23.99
2019-04-30T15:11:28.827Z,25.32
2019-04-30T15:13:59.167Z,24.55
2019-04-30T15:16:28.266Z,25.23
2019-04-30T15:18:57.109Z,24.37
2019-04-30T15:21:26.093Z,23.28
2019-04-30T15:24:20.250Z,22.90
2019-04-30T15:26:57.860Z,23.20
2019-04-30T15:29:19.999Z,23.10
2019-04-30T15:31:49.040Z,24.15
2019-04-30T15:34:19.234Z,23.61
2019-04-30T15:36:49.248Z,23.99
2019-04-30T15:39:41.445Z,22.89
2019-04-30T15:42:11.816Z,22.80
2019-04-30T15:44:45.489Z,23.28
2019-04-30T15:47:11.865Z,22.81
2019-04-30T15:49:40.796Z,22.78
2019-04-30T15:52:16.348Z,23.54
2019-04-30T15:54:45.342Z,23.59
2019-04-30T15:57:14.452Z,22.83
2019-04-30T15:59:44.469Z,22.24
2019-04-30T16:02:28.738Z,22.53
2019-04-30T16:05:19.801Z,22.46
2019-04-30T16:07:58.807Z,22.66
2019-04-30T16:10:49.636Z,22.79
2019-04-30T16:13:20.915Z,23.16
2019-04-30T16:15:49.878Z,23.32
2019-04-30T16:18:19.652Z,23.67
2019-04-30T16:20:49.842Z,24.05
2019-04-30T16:23:19.250Z,21.99
2019-04-30T16:25:48.418Z,21.99
2019-04-30T16:28:19.470Z,20.90
2019-04-30T16:30:48.197Z,21.29
2019-04-30T16:33:19.359Z,21.43
2019-04-30T16:35:50.853Z,21.79
2019-04-30T16:38:20.899Z,22.11
2019-04-30T16:40:49.415Z,22.78
2019-04-30T16:43:20.258Z,23.12
2019-04-30T16:45:49.651Z,23.55
2019-04-30T16:48:19.342Z,23.78
2019-04-30T16:50:51.252Z,22.48
2019-04-30T16:53:19.806Z,22.13
2019-04-30T16:55:50.652Z,21.85
2019-04-30T16:58:19.763Z,22.14
2019-04-30T17:00:49.336Z,21.76
2019-04-30T17:03:30.969Z,22.12
2019-04-30T17:06:05.903Z,22.54
2019-04-30T17:08:39.744Z,22.65
2019-04-30T17:11:28.265Z,22.79
2019-04-30T17:14:03.135Z,22.93
2019-04-30T17:16:31.951Z,22.97
2019-04-30T17:19:00.886Z,23.22
2019-04-30T17:21:29.915Z,23.58
2019-04-30T17:23:58.987Z,23.69
2019-04-30T17:26:27.904Z,23.74
2019-04-30T17:28:56.915Z,23.03
2019-04-30T17:31:25.991Z,23.16
2019-04-30T17:33:54.880Z,23.01
2019-04-30T17:36:23.994Z,23.01
2019-04-30T17:38:53.032Z,22.32
2019-04-30T17:41:21.853Z,22.45
2019-04-30T17:43:50.817Z,22.51
2019-04-30T17:46:20.202Z,22.42
2019-04-30T17:48:49.585Z,22.13
2019-04-30T17:51:18.680Z,21.42
2019-04-30T17:54:05.606Z,20.41
2019-04-30T17:56:35.445Z,20.56
2019-04-30T17:59:04.403Z,20.43
2019-04-30T18:01:33.358Z,20.48
2019-04-30T18:04:02.373Z,20.08
2019-04-30T18:06:31.309Z,19.87
2019-04-30T18:09:00.265Z,19.99
2019-04-30T18:11:29.641Z,19.40
2019-04-30T18:13:59.082Z,19.23
2019-04-30T18:16:28.672Z,18.66
2019-04-30T18:19:08.822Z,18.52
2019-04-30T18:21:54.047Z,18.40
2019-04-30T18:24:30.712Z,18.23
2019-04-30T18:27:03.835Z,17.84
2019-04-30T18:29:32.950Z,17.61
2019-04-30T18:32:02.002Z,17.41
2019-04-30T18:34:31.689Z,17.29
2019-04-30T18:37:00.553Z,16.97
2019-04-30T18:39:29.636Z,16.96
2019-04-30T18:41:58.581Z,16.86
2019-04-30T18:44:29.463Z,16.46
2019-04-30T18:46:59.039Z,16.67
2019-04-30T18:49:28.711Z,16.54
2019-04-30T18:51:59.047Z,16.40
2019-04-30T18:54:28.970Z,16.32
2019-04-30T18:56:58.915Z,16.16
2019-04-30T18:59:32.610Z,16.16
2019-04-30T19:02:01.326Z,16.08
2019-04-30T19:04:30.311Z,15.98
2019-04-30T19:07:02.306Z,15.79
2019-04-30T19:09:41.880Z,15.77
2019-04-30T19:12:28.949Z,15.80
2019-04-30T19:15:13.528Z,15.75
2019-04-30T19:18:13.721Z,15.67
2019-04-30T19:20:45.697Z,15.46
2019-04-30T19:23:14.595Z,15.43
2019-04-30T19:25:43.514Z,15.38
2019-04-30T19:28:14.526Z,15.18
2019-04-30T19:30:54.953Z,15.00
2019-04-30T19:33:14.044Z,15.00
2019-04-30T19:35:43.550Z,14.88
2019-04-30T19:38:12.494Z,14.82
2019-04-30T19:40:41.639Z,14.83
2019-04-30T19:43:11.240Z,14.93
2019-04-30T19:45:40.125Z,14.81
2019-04-30T19:48:09.113Z,14.79
2019-04-30T19:50:38.018Z,14.60
2019-04-30T19:53:08.727Z,14.43
2019-04-30T19:55:39.400Z,14.26
2019-04-30T19:58:08.395Z,14.31
2019-04-30T20:00:38.988Z,14.26
2019-04-30T20:03:08.868Z,14.37
2019-04-30T20:05:39.435Z,14.34
2019-04-30T20:08:10.785Z,14.27
2019-04-30T20:10:39.876Z,14.25
2019-04-30T20:13:10.838Z,14.19
2019-04-30T20:15:39.661Z,14.17
2019-04-30T20:18:09.009Z,14.05
2019-04-30T20:20:39.887Z,13.92
2019-04-30T20:23:08.834Z,13.82
2019-04-30T20:25:37.839Z,13.72
2019-04-30T20:28:06.936Z,13.60
2019-04-30T20:30:36.120Z,13.54
2019-04-30T20:33:05.094Z,13.41
2019-04-30T20:35:34.124Z,13.28
2019-04-30T20:38:34.120Z,13.15
2019-04-30T20:41:03.954Z,13.17
2019-04-30T20:43:32.956Z,13.05
2019-04-30T20:46:01.958Z,13.19
2019-04-30T20:48:30.862Z,13.15
2019-04-30T20:51:01.420Z,13.19
2019-04-30T20:53:30.325Z,13.15
2019-04-30T20:55:59.423Z,13.24
2019-04-30T20:58:28.351Z,13.26
2019-04-30T21:01:03.989Z,13.14
2019-04-30T21:03:29.580Z,13.13
2019-04-30T21:06:00.538Z,12.99
2019-04-30T21:08:29.425Z,12.91
2019-04-30T21:10:59.362Z,12.98
2019-04-30T21:13:29.477Z,12.85
2019-04-30T21:15:59.514Z,12.86
2019-04-30T21:18:32.039Z,12.84
2019-04-30T21:20:59.685Z,12.80
2019-04-30T21:23:29.383Z,12.87
2019-04-30T21:25:58.939Z,12.87
2019-04-30T21:28:29.713Z,12.84
2019-04-30T21:31:02.040Z,12.60
2019-04-30T21:33:38.481Z,12.50
2019-04-30T21:36:14.892Z,12.36
2019-04-30T21:38:44.015Z,12.24
2019-04-30T21:41:13.012Z,12.21
2019-04-30T21:43:42.054Z,12.14
2019-04-30T21:46:10.872Z,12.02
2019-04-30T21:48:39.698Z,12.07
2019-04-30T21:51:09.391Z,12.11
2019-04-30T21:53:39.622Z,12.15
2019-04-30T21:56:08.709Z,12.03
2019-04-30T21:58:39.242Z,12.14
2019-04-30T22:01:23.006Z,12.12
2019-04-30T22:03:52.175Z,12.08
2019-04-30T22:06:21.209Z,11.94
2019-04-30T22:08:50.230Z,11.69
2019-04-30T22:11:19.900Z,11.47
2019-04-30T22:13:49.383Z,11.34
2019-04-30T22:16:20.320Z,11.16
2019-04-30T22:18:49.074Z,11.01
2019-04-30T22:21:17.983Z,11.00
2019-04-30T22:23:46.868Z,10.76
2019-04-30T22:26:15.770Z,10.73
2019-04-30T22:28:44.674Z,10.62
2019-04-30T22:31:13.624Z,10.52
2019-04-30T22:33:42.524Z,10.71
2019-04-30T22:36:31.526Z,10.60
2019-04-30T22:39:34.904Z,10.45
2019-04-30T22:42:29.578Z,10.28
2019-04-30T22:44:58.487Z,10.30
2019-04-30T22:47:27.374Z,10.23
2019-04-30T22:49:56.263Z,10.20
2019-04-30T22:52:25.289Z,10.35
2019-04-30T22:54:54.345Z,10.27
2019-04-30T22:57:23.345Z,10.27
2019-04-30T22:59:52.154Z,10.35
2019-04-30T23:02:42.927Z,10.19
2019-04-30T23:05:14.923Z,10.17
2019-04-30T23:07:43.849Z,10.12
2019-04-30T23:10:12.871Z,10.04
2019-04-30T23:12:41.811Z,10.06
2019-04-30T23:15:10.886Z,9.96
2019-04-30T23:17:39.775Z,10.23
2019-04-30T23:20:09.565Z,10.24
2019-04-30T23:22:38.504Z,10.44
2019-04-30T23:25:07.861Z,10.18
2019-04-30T23:27:36.773Z,10.11
2019-04-30T23:30:07.344Z,10.29
2019-04-30T23:32:36.259Z,10.34
2019-04-30T23:35:05.549Z,9.95
2019-04-30T23:37:34.471Z,9.80
2019-04-30T23:40:26.589Z,9.60
2019-04-30T23:42:55.766Z,9.54
2019-04-30T23:45:25.391Z,9.65
2019-04-30T23:47:54.319Z,9.48
2019-04-30T23:50:23.213Z,9.32
2019-04-30T23:52:52.316Z,9.22
2019-04-30T23:55:21.198Z,9.11
2019-04-30T23:57:50.181Z,9.12
